Ghardaia, Algeria
Current Conditions -  °F | °C
As of 4:00 PM on Sunday 21 Dec 2014 (Local Time) from DAUG Reporting Station
Few Clouds Few Clouds  
Wind Chill: 19°   Ceiling: Unl
Heat Index: 19°   Visibility: 6mi
Dew Point:   Wind: 7mph
Humidity: 40%   Direction: 50°NE
Pressure: 30.36"   Gusts: NA
Location:  32.49°N, 3.68°E
Report Text: DAUG 211500Z 05006KT 020V080 9999 FEW046 19/05 Q1028
Loading
Personal Weather Stations






























Interactive Weather Map New forecast layout! Learn more

10-Day Weather Forecast

Advertisements
Track Severe Weather on mobile